Change Date:Time:

Metar of : 10/18/2018 1200UTC
Metar
IS1: TAF OPIS 181200Z 1815/1824 28010KT 5000 HZ FEW040 SCT100
OPAS 18004KT 9999 FEW040 11/M02 41%
OPBDN 18120Z 02302KT 8000 Cavak 35/22 Q 1007 RH 45%
OPBJ 36002KT 9000 FEW030 SCT040 BKN120 17/M02 28%
OPBK 00000KT 9999 FEW100 21/11 52%
OPBKN 18120Z 00000KT CAVOK 27/M00 RH17%
OPBKR 04504KT CAVOK 32/14 34%
OPBL 181200Z 27006KT 8000 NSC 37/_02 RH09%
OPBN 18006 KT CAVOK 28/10 33%
OPBR 05004KT CAVOK 32/13 31%
OPBW 00000KT 3500 HZ NSC 32/16 Q1009 38%
OPBW( CITY) 00000KT 2000 HZ NSC 32/15 36%
OPCH 00000KT 9999 SCT040 FEW100 17/06 Q1018 51%
OPCK 36002KT 9999 NSC 27/10 34%
OPCL 00000KT 9999 SCT040 BKN120 20/04 RH35%
OPDBN 18120Z 23004KT 9999 FEW040 27/10 QNH.1016 R.H34%
OPDG 36004KT 5000 HZ NSC 31/17 Q1009 43%
OPDH 04504kT 9999 FEW050 BKN100 17/04 41%
OPDIK 05002KT CAVOK 31/15 Q1010 38%
OPDIR 23003KT 9999 Sct035 Sct100 18/09 55%
OPDU 181200Z 00000KT 7000 HZ NSC 34/14 RH 29%
OPFA 36004KT 6000 NSC 30/05 Q1010 NOSIG RH21%
OPGD 181200Z 18010KT 6000 NSC 34/13 Q1010 RH29%
OPGP 31002KT 9999 FEW040 23/13 54%
OPGPS 13002KT 8000 SCT040 SCT100 13/M02 RH36%
OPGT 00000KT 9000 SCT040 BKN100 16/06 Q1020 52% A.V O.H CLOUDy
OPHQ 00000KT 6000 FEW030 FEW100 26/11 Q1010 RH 41%
OPHZ 00000KT 8000 FEW040 SCT100 12/M01 RH 42%
OPIS 30007KT 6000 FEW040 25/10 Q1012 RH40%
OPJBD 00000kt CAVOK 33/19 44%
OPJG 00000KT CAVOK 31/14 Q1009 37%
OPJI 181200Z 13010KT 7000 HZ SKC 32/12 Q1010RH29%
OPJM 00000KT 4000 HZ NSC 30/17 47%
OPKAD 00000KT 8000 NSC 31/21 54%
OPKC 181200Z 23008KT 6000 FEW100 34/15 Q1008 RH32%
OPKD 181200Z 04505KT 6000 NSC 35/09 Q1007 RH20% NO SIG
OPKK 00000KT 9999 FEW100 21/06 40%
OPKL 00000KT CAVOK 28/11 34%
OPKLT 1200z 00000kt CAVOK 8028 16/-01Rh.31%
OPKP 00000KT 5000 HZ NSC 32/16 39%
OPKRL 00000KT 5000 HZ NSC 30/14 38%
OPKS 05002KT 6000 NSC 30/17 44%
OPLA 01004KT 5000 HZ NSC 29/16 Q1010 A29.83 BECMG 4000 RH 46%
OPLA( CITY) 00000KT 5000 HZ NSC 30/14 Q1009 RH 38% H/RAIN NIL
OPLRK 18120Z 31502KT 6000 NSC 34/15 Q1009 RH32%
OPMA 00000KT 6000 FEW040 30/11 Q1012 31%
OPMB 00000KT CAVOK 32/18 Q1010 43%
OPME 00000kt CAVOK 15/06 53%
OPMF 00000KT 9999 SCT033 23/12 50%
OPMIT 181200 22504KT 6000 FEW 035 37/09 Q1007 RH18%
OPMJ 181200Z 36002KT 6000 NSC 33/13 Q1008 RH30% NO SIG OPJD 181200Z 00000Kt 6000 HZ NSC 33/16 Q1009 RH35%
OPMJB 05002KT 9999 SCT 040 11/02 52%
OPMPK 18120Z 04502KT V7000 SKC 35/19 Q1006 RH 40%
OPMT 00000KT 4000 HZ FEW040 32/12 Q1009 NOSIG RH31%
OPNH 181200Z 31504KT 5000 Fu Nsc 36/13 Q1008 RH26%NOSIG
OPNK 181200Z 31504KT CAVOK 29/M10 Q1009 R.H. 08%
OPNPT 00000KT 7000 NSC 32/15 34%
OPOK 00000KT 6000 NSC 31/14 Q1009 37%
OPOR 181200Z 20012KT 4000 HAZE 31/23 Q 1012 RH63%
OPPDN 18120Z 00000KT 5000 34/13 Q1009 RH 29%
OPPG 181200z 36014KT 8000 SKC 27/M03 Q1017 Rh14%
OPPI 181200Z 13505KT 6000 skc t 33/20 Q1009 RH45%
OPPSH (41529) 00000KT 7000 SCT040 SCT100 24/16 RH 60%
OPQT 31016KT 9999 FEW050 20/M02 Q1021 RH.22%
OPRK 00000KT 6000 NSC 33/15 Q1009 34%
OPRRI 18120Z 00000KT 10000 NSC 34/07 P1P1 0004
OPRT 13002KT 9999 FEW040 19/06 Q1022 43%
OPSD 00000KT 9999 SCT035 12/02 Q1022 49% A/V O.H.P.CLOUDY
OPSG 00000KT 8000 NSC 30/11 31%
OPSK 181200Z 00000KT 4000 HZ NSC 34/15 Q.1007 RH32% NOSIG
OPSKD 18120Z 36002KT NSC 35/17 RH 35%
OPSKT 1200Z 00000KT 6000 NSC 30/19 53%
OPSM 181200Z 23002KT 6000 HZ NSC 20/-02 RH22%
OPSS 00000KT CAVOK 21/09 48%
OPST 31003KT 5000 HZ NSC 29/14 Q1011 NOSIG RH40%
OPSW 31002KT 4000 HZ NSC 31/16 Q1008 40%
OPTJM 18120Z 00000KT 6000 SKC 34/16 Q1012 RH 34%
OPTMG 18002KT 9999 FEW 030 25/09 37%
OPTS 00000KT 7000 NSC 30/16 42%
OPTU 181200Z 00000KT CAVOK 37/00 Q1009 RH14%
OPUG 00000KT 7000 NSC 30/11 31%
OPZB 181200Z 23005kt CAV OK 24/09 QNH
QT1.TAF OPQT 181200Z 1815/1824 310115G25KT 9999 FEW050 FEW100 TEMPO 1819/1824 13010KT 6000 FEW100
CodeW.DirSpeedVisibilityCloud ConditionTempPressureHumidityStation
OPAS18004KT9999mPartly Cloudy11oC41%ASTORE
OPBR05004KTClear32oC31%Bahawalnagar
OPBW00000KT3500mHaze32oC1009hp38%Bahawalpur City
OPBK00000KT9999mPartly Cloudy21oC52%Balakot
OPBKR04504KTClear32oC34%Bhakkar
OPBJ36002KT9000mPartly Cloudy17oC28%BUNJI
OPCK36002KT9999mClear27oC34%Chakwal
OPCL00000KT9999mPartly Cloudy20oC35%Chilas
OPCH00000KT9999mPartly Cloudy17oC1018hp51%Chitral
OPDG36004KT5000mHaze31oC1009hp43%D-G-KHAN
OPFA36004KT6000mClear30oC1010hp21%Faisalabad Airport
OPGP31002KT9999mPartly Cloudy23oC54%GARHI DOPATTA
OPGD18010KT6000mClear34oC1010hp29%Gawadar
OPGT00000KT9000mPartly Cloudy16oC1020hp52%Gilgit Airport
OPUG00000KT7000mClear30oC31%Gujrat
OPHZ00000KT8000mPartly Cloudy12oC42%Hunza
OPKD04505KT6000mClear35oC1007hp20%Hyderabad
OPIS30007KT6000mPartly Cloudy25oC1012hp40%Islamabad Airport
OPHQ00000KT6000mPartly Cloudy26oC1010hp41%Islamabad City
OPJG00000KTClear31oC1009hp37%Jhang
OPJM00000KT4000mHaze30oC47%Jhelum
OPJI13010KT7000mHaze32oCJiwani
OPJBD00000KTClear33oC44%Joharabad
OPKK00000KT9999mPartly Cloudy21oC40%Kakul
OPKC23008KT6000mPartly Cloudy34oC1008hp32%Karachi Airport
OPKRL00000KT5000mHaze30oC38%KAROR (LAYYAH)
OPKS05002KT6000mClear30oC44%Kasur
OPKP00000KT5000mHaze32oC39%Khanpur
OPKAD00000KT8000mClear31oC54%KOT ADDU
OPKL00000KTClear28oC34%Kotli
OPLA01004KT5000mHaze29oC1010hp46%Lahore Airport
OPTMG18002KT9999mPartly Cloudy25oC37%Lower Dir
OPMJB05002KT9999mPartly Cloudy11oC52%MALAM JABBA
OPMB00000KTClear32oC1010hp43%MANDI BAHUDDIN
OPMA00000KT6000mPartly Cloudy30oC1012hp31%Mangla
OPMJ36002KT6000mClear33oC1008hp35%MOHENJO DARO
OPMT00000KT4000mPartly Cloudy32oC1009hp31%Multan
OPME00000KTClear15oC53%Murree
OPMF00000KT9999mPartly Cloudy23oC50%MUZAFFARABAD
OPNPT00000KT7000mClear32oC34%NOOR PUR THAL
OPOK00000KT6000mClear31oC1009hp37%Okara
OPOR20012KT4000m31oC1012hp63%Ormara
OPPG36014KT8000mClear27oC1017hp14%Panjgur
OPPI13505KT6000mClear33oC1009hp45%Pasni
OPQT31016KT9999mPartly Cloudy20oC1021hp22%Quetta
OPRT13002KT9999mPartly Cloudy19oC1022hp43%Rawalakot
OPRK00000KT6000mClear33oC1009hp34%R-Y-KHAN
OPSW31002KT4000mHaze31oC1008hp40%Sahiwal
OPSS00000KTClear21oC48%SAIDU SHARIF
OPNH31504KT5000mHaze36oCShaheed Benazirabad
OPST31003KT5000mHaze29oC1011hp40%Sialkot Airport
OPSD00000KT9999mPartly Cloudy12oC1022hp49%Skardu
OPSK00000KT4000mHaze34oCSukkur
OPTS00000KT7000mClear30oC42%T.T. SINGH
OPTU00000KTClear37oC1009hp14%Turbat